createdAt,value
2023-05-17T00:03:36.609Z,2.00
2023-05-17T00:08:38.412Z,2.20
2023-05-17T00:13:41.186Z,2.10
2023-05-17T00:18:43.324Z,2.03
2023-05-17T00:23:45.299Z,2.13
2023-05-17T00:28:50.153Z,2.45
2023-05-17T00:33:51.992Z,1.90
2023-05-17T00:38:53.832Z,2.97
2023-05-17T00:43:55.724Z,2.10
2023-05-17T00:48:57.664Z,2.65
2023-05-17T00:53:59.568Z,2.50
2023-05-17T00:59:02.280Z,2.58
2023-05-17T01:04:04.611Z,2.53
2023-05-17T01:09:08.022Z,2.67
2023-05-17T01:14:33.371Z,2.50
2023-05-17T01:19:53.880Z,3.42
2023-05-17T01:25:12.466Z,1.92
2023-05-17T01:30:16.035Z,3.38
2023-05-17T01:35:18.010Z,3.05
2023-05-17T01:40:20.628Z,3.30
2023-05-17T01:45:28.425Z,3.05
2023-05-17T01:50:32.813Z,3.88
2023-05-17T01:55:52.119Z,4.13
2023-05-17T02:00:57.408Z,3.28
2023-05-17T02:05:59.233Z,4.28
2023-05-17T02:11:01.243Z,4.20
2023-05-17T02:16:04.419Z,3.92
2023-05-17T02:21:06.328Z,3.67
2023-05-17T02:26:08.224Z,4.22
2023-05-17T02:31:10.020Z,4.50
2023-05-17T02:36:11.935Z,4.40
2023-05-17T02:41:13.879Z,4.20
2023-05-17T02:46:15.788Z,4.55
2023-05-17T02:51:17.679Z,4.43
2023-05-17T02:56:19.557Z,4.10
2023-05-17T03:01:21.399Z,4.10
2023-05-17T03:06:23.161Z,3.50
2023-05-17T03:11:25.231Z,3.88
2023-05-17T03:16:27.049Z,4.65
2023-05-17T03:21:28.874Z,4.18
2023-05-17T03:26:32.139Z,3.85
2023-05-17T03:31:34.042Z,4.28
2023-05-17T03:36:35.885Z,5.10
2023-05-17T03:41:37.877Z,3.88
2023-05-17T03:46:39.678Z,5.07
2023-05-17T03:51:41.614Z,3.85
2023-05-17T03:56:47.119Z,4.07
2023-05-17T04:01:49.031Z,3.92
2023-05-17T04:06:50.898Z,3.90
2023-05-17T04:11:52.894Z,3.85
2023-05-17T04:16:54.769Z,4.00
2023-05-17T04:21:56.620Z,4.25
2023-05-17T04:27:01.334Z,4.07
2023-05-17T04:32:04.979Z,4.63
2023-05-17T04:37:07.068Z,5.38
2023-05-17T04:42:09.215Z,5.15
2023-05-17T04:47:11.048Z,5.68
2023-05-17T04:52:12.857Z,5.85
2023-05-17T04:57:15.167Z,5.65
2023-05-17T05:02:17.027Z,6.00
2023-05-17T05:07:18.820Z,6.30
2023-05-17T05:12:20.676Z,5.90
2023-05-17T05:17:22.563Z,6.70
2023-05-17T05:22:24.546Z,5.82
2023-05-17T05:27:26.356Z,7.05
2023-05-17T05:32:28.153Z,6.90
2023-05-17T05:37:29.965Z,6.82
2023-05-17T05:42:31.742Z,7.22
2023-05-17T05:47:33.740Z,8.40
2023-05-17T05:52:35.894Z,8.70
2023-05-17T05:57:37.851Z,7.82
2023-05-17T06:02:39.995Z,9.77
2023-05-17T06:07:41.858Z,8.38
2023-05-17T06:12:43.676Z,7.63
2023-05-17T06:17:45.552Z,8.65
2023-05-17T06:22:47.712Z,8.50
2023-05-17T06:27:49.552Z,8.00
2023-05-17T06:32:51.434Z,7.75
2023-05-17T06:37:53.302Z,7.05
2023-05-17T06:42:55.122Z,6.65
2023-05-17T06:47:56.971Z,7.13
2023-05-17T06:52:58.874Z,6.53
2023-05-17T06:58:00.810Z,7.75
2023-05-17T07:03:02.714Z,7.72
2023-05-17T07:08:10.555Z,7.18
2023-05-17T07:13:12.387Z,7.25
2023-05-17T07:18:14.328Z,6.57
2023-05-17T07:23:16.268Z,7.38
2023-05-17T07:28:18.332Z,6.90
2023-05-17T07:33:20.145Z,7.13
2023-05-17T07:38:22.297Z,6.13
2023-05-17T07:43:24.785Z,5.25
2023-05-17T07:48:26.730Z,4.00
2023-05-17T07:53:28.680Z,4.18
2023-05-17T07:58:30.857Z,3.88
2023-05-17T08:03:35.921Z,3.55
2023-05-17T08:08:37.783Z,3.22
2023-05-17T08:13:39.728Z,3.38
2023-05-17T08:18:43.256Z,3.42
2023-05-17T08:23:45.574Z,2.42
2023-05-17T08:28:47.528Z,2.63
2023-05-17T08:33:49.497Z,2.70
2023-05-17T08:38:52.577Z,2.88
2023-05-17T08:43:55.271Z,2.83
2023-05-17T08:49:00.092Z,2.58
2023-05-17T08:54:06.217Z,3.53
2023-05-17T08:59:10.516Z,2.70
2023-05-17T09:04:12.629Z,3.17
2023-05-17T09:09:15.562Z,3.60
2023-05-17T09:14:17.550Z,2.70
2023-05-17T09:19:19.748Z,2.83
2023-05-17T09:24:30.211Z,2.75
2023-05-17T09:29:32.975Z,2.40
2023-05-17T09:34:39.250Z,2.75
2023-05-17T09:39:41.917Z,3.28
2023-05-17T09:44:57.695Z,2.33
2023-05-17T09:50:03.575Z,2.50
2023-05-17T09:55:06.723Z,2.38
2023-05-17T10:00:11.545Z,1.83
2023-05-17T10:05:15.379Z,1.73
2023-05-17T10:10:18.215Z,1.58
2023-05-17T10:15:21.193Z,1.90
2023-05-17T10:20:23.509Z,2.05
2023-05-17T10:25:26.032Z,1.98
2023-05-17T10:30:29.238Z,1.88
2023-05-17T10:35:33.221Z,2.10
2023-05-17T10:40:37.148Z,2.08
2023-05-17T10:45:39.294Z,2.03
2023-05-17T10:50:54.084Z,2.00
2023-05-17T10:55:56.667Z,1.95
2023-05-17T11:00:58.448Z,2.17
2023-05-17T11:06:23.459Z,2.20
2023-05-17T11:11:26.791Z,1.90
2023-05-17T11:16:35.843Z,2.30
2023-05-17T11:21:46.580Z,1.85
2023-05-17T11:26:50.736Z,2.22
2023-05-17T11:31:53.250Z,2.00
2023-05-17T11:36:56.545Z,1.98
2023-05-17T11:41:58.425Z,2.10
2023-05-17T11:47:05.058Z,1.95
2023-05-17T11:52:08.213Z,1.98
2023-05-17T11:57:13.017Z,1.95
2023-05-17T12:02:31.547Z,1.73
2023-05-17T12:07:34.930Z,2.00
2023-05-17T12:12:36.877Z,1.45
2023-05-17T12:17:44.574Z,1.58
2023-05-17T12:22:56.414Z,1.60
2023-05-17T12:28:27.350Z,1.25
2023-05-17T12:33:36.041Z,1.40
2023-05-17T12:38:42.475Z,1.52
2023-05-17T12:43:46.074Z,1.23
2023-05-17T12:48:49.771Z,1.40
2023-05-17T12:53:54.170Z,1.50
2023-05-17T12:59:06.521Z,1.73
2023-05-17T13:04:08.596Z,1.52
2023-05-17T13:09:10.872Z,1.90
2023-05-17T13:14:12.814Z,1.42
2023-05-17T13:19:14.987Z,1.50
2023-05-17T13:24:16.945Z,1.67
2023-05-17T13:29:22.890Z,1.63
2023-05-17T13:34:30.431Z,1.80
2023-05-17T13:39:32.596Z,1.58
2023-05-17T13:44:34.511Z,1.35
2023-05-17T13:49:37.324Z,2.13
2023-05-17T13:54:39.301Z,1.58
2023-05-17T13:59:41.144Z,1.27
2023-05-17T14:04:43.357Z,1.40
2023-05-17T14:09:45.190Z,1.70
2023-05-17T14:14:47.165Z,1.80
2023-05-17T14:19:49.122Z,1.85
2023-05-17T14:24:51.035Z,1.67
2023-05-17T14:29:52.889Z,1.65
2023-05-17T14:34:54.692Z,1.58
2023-05-17T14:40:06.039Z,1.30
2023-05-17T14:45:09.203Z,1.50
2023-05-17T14:50:11.334Z,1.40
2023-05-17T14:55:16.659Z,1.75
2023-05-17T15:00:18.761Z,1.30
2023-05-17T15:05:20.675Z,1.52
2023-05-17T15:10:22.967Z,1.63
2023-05-17T15:15:24.793Z,1.40
2023-05-17T15:20:26.742Z,1.80
2023-05-17T15:25:28.956Z,1.52
2023-05-17T15:30:31.111Z,2.00
2023-05-17T15:35:32.924Z,1.52
2023-05-17T15:40:34.754Z,1.83
2023-05-17T15:45:36.633Z,1.60
2023-05-17T15:50:38.529Z,1.30
2023-05-17T15:55:40.610Z,1.70
2023-05-17T16:00:42.601Z,2.13
2023-05-17T16:05:44.492Z,1.52
2023-05-17T16:10:47.365Z,1.45
2023-05-17T16:15:49.238Z,1.35
2023-05-17T16:20:58.711Z,1.75
2023-05-17T16:26:02.858Z,1.67
2023-05-17T16:31:05.898Z,2.10
2023-05-17T16:36:08.022Z,1.55
2023-05-17T16:41:10.112Z,1.70
2023-05-17T16:46:12.141Z,2.08
2023-05-17T16:51:14.045Z,1.80
2023-05-17T16:56:16.124Z,1.80
2023-05-17T17:01:17.960Z,1.67
2023-05-17T17:06:19.804Z,2.13
2023-05-17T17:11:24.165Z,2.20
2023-05-17T17:16:25.991Z,2.00
2023-05-17T17:21:27.784Z,2.20
2023-05-17T17:26:30.350Z,1.30
2023-05-17T17:31:32.488Z,2.03
2023-05-17T17:36:35.127Z,2.35
2023-05-17T17:41:36.969Z,2.10
2023-05-17T17:46:38.836Z,1.92
2023-05-17T17:51:40.744Z,2.05
2023-05-17T17:56:42.548Z,2.20
2023-05-17T18:01:44.615Z,2.03
2023-05-17T18:06:46.592Z,1.98
2023-05-17T18:11:49.377Z,2.05
2023-05-17T18:16:51.275Z,1.80
2023-05-17T18:21:53.332Z,1.83
2023-05-17T18:26:55.426Z,2.17
2023-05-17T18:31:59.479Z,1.92
2023-05-17T18:37:02.355Z,2.42
2023-05-17T18:42:04.554Z,1.73
2023-05-17T18:47:08.814Z,2.17
2023-05-17T18:52:11.031Z,2.30
2023-05-17T18:57:14.226Z,1.98
2023-05-17T19:02:16.432Z,1.73
2023-05-17T19:07:18.361Z,2.50
2023-05-17T19:12:20.232Z,2.22
2023-05-17T19:17:22.390Z,1.73
2023-05-17T19:22:26.079Z,1.83
2023-05-17T19:27:27.959Z,2.08
2023-05-17T19:32:33.337Z,2.65
2023-05-17T19:37:35.416Z,1.77
2023-05-17T19:42:37.274Z,1.80
2023-05-17T19:47:39.211Z,2.28
2023-05-17T19:52:41.167Z,2.35
2023-05-17T19:57:43.641Z,2.42
2023-05-17T20:02:48.861Z,1.63
2023-05-17T20:07:50.903Z,2.50
2023-05-17T20:12:53.405Z,2.17
2023-05-17T20:17:55.627Z,2.22
2023-05-17T20:22:57.613Z,2.25
2023-05-17T20:27:59.433Z,1.92
2023-05-17T20:33:02.649Z,1.77
2023-05-17T20:38:05.971Z,1.77
2023-05-17T20:43:10.849Z,2.78
2023-05-17T20:48:13.409Z,2.92
2023-05-17T20:53:15.282Z,2.30
2023-05-17T20:58:17.084Z,3.10
2023-05-17T21:03:19.320Z,1.67
2023-05-17T21:08:21.569Z,2.13
2023-05-17T21:13:25.736Z,1.70
2023-05-17T21:18:27.796Z,2.00
2023-05-17T21:23:29.661Z,2.65
2023-05-17T21:28:31.591Z,2.72
2023-05-17T21:33:33.868Z,3.28
2023-05-17T21:38:36.094Z,3.15
2023-05-17T21:43:37.947Z,3.33
2023-05-17T21:48:39.908Z,4.00
2023-05-17T21:53:42.034Z,3.78
2023-05-17T21:58:44.555Z,3.85
2023-05-17T22:03:48.014Z,3.55
2023-05-17T22:08:49.940Z,3.53
2023-05-17T22:13:51.983Z,3.45
2023-05-17T22:18:55.088Z,3.70
2023-05-17T22:23:57.174Z,3.40
2023-05-17T22:28:59.208Z,3.50
2023-05-17T22:34:01.238Z,3.20
2023-05-17T22:39:03.292Z,3.45
2023-05-17T22:44:06.635Z,2.60
2023-05-17T22:49:08.981Z,3.58
2023-05-17T22:54:11.123Z,2.78
2023-05-17T22:59:12.980Z,3.25
2023-05-17T23:04:14.918Z,2.85
2023-05-17T23:09:17.497Z,3.10
2023-05-17T23:14:21.805Z,3.35
2023-05-17T23:19:23.854Z,2.45
2023-05-17T23:24:26.015Z,2.60
2023-05-17T23:29:27.922Z,2.90
2023-05-17T23:34:29.769Z,3.22
2023-05-17T23:39:31.628Z,2.78
2023-05-17T23:44:34.914Z,3.10
2023-05-17T23:49:39.117Z,2.60
2023-05-17T23:54:43.235Z,2.78
2023-05-17T23:59:45.144Z,3.75
